sensor_id;sensor_type;location;lat;lon;timestamp;temperature;humidity
506;DHT22;551;48.524;9.056;2023-08-21T00:01:18;24.80;1.00
506;DHT22;551;48.524;9.056;2023-08-21T00:03:43;24.80;1.00
506;DHT22;551;48.524;9.056;2023-08-21T00:06:09;24.70;1.00
506;DHT22;551;48.524;9.056;2023-08-21T00:08:34;24.80;1.00
506;DHT22;551;48.524;9.056;2023-08-21T00:11:00;24.70;1.00
506;DHT22;551;48.524;9.056;2023-08-21T00:13:25;24.70;1.00
506;DHT22;551;48.524;9.056;2023-08-21T00:15:51;24.60;1.00
506;DHT22;551;48.524;9.056;2023-08-21T00:18:17;24.60;1.00
506;DHT22;551;48.524;9.056;2023-08-21T00:20:42;24.60;1.00
506;DHT22;551;48.524;9.056;2023-08-21T00:23:08;24.50;1.00
506;DHT22;551;48.524;9.056;2023-08-21T00:25:34;24.50;1.00
506;DHT22;551;48.524;9.056;2023-08-21T00:28:00;24.50;1.00
506;DHT22;551;48.524;9.056;2023-08-21T00:30:26;24.50;1.00
506;DHT22;551;48.524;9.056;2023-08-21T00:32:51;24.40;1.00
506;DHT22;551;48.524;9.056;2023-08-21T00:35:17;24.40;1.00
506;DHT22;551;48.524;9.056;2023-08-21T00:37:42;24.40;1.00
506;DHT22;551;48.524;9.056;2023-08-21T00:40:08;24.40;1.00
506;DHT22;551;48.524;9.056;2023-08-21T00:42:34;24.30;1.00
506;DHT22;551;48.524;9.056;2023-08-21T00:44:59;24.20;1.00
506;DHT22;551;48.524;9.056;2023-08-21T00:47:25;24.20;1.00
506;DHT22;551;48.524;9.056;2023-08-21T00:49:50;24.10;1.00
506;DHT22;551;48.524;9.056;2023-08-21T00:52:17;24.00;1.00
506;DHT22;551;48.524;9.056;2023-08-21T00:54:43;24.00;1.00
506;DHT22;551;48.524;9.056;2023-08-21T00:57:10;23.90;1.00
506;DHT22;551;48.524;9.056;2023-08-21T00:59:37;23.90;1.00
506;DHT22;551;48.524;9.056;2023-08-21T01:02:02;23.80;1.00
506;DHT22;551;48.524;9.056;2023-08-21T01:04:28;23.80;1.00
506;DHT22;551;48.524;9.056;2023-08-21T01:06:54;23.80;1.00
506;DHT22;551;48.524;9.056;2023-08-21T01:09:25;23.80;1.00
506;DHT22;551;48.524;9.056;2023-08-21T01:12:02;23.80;1.00
506;DHT22;551;48.524;9.056;2023-08-21T01:14:36;23.80;1.00
506;DHT22;551;48.524;9.056;2023-08-21T01:17:07;23.80;1.00
506;DHT22;551;48.524;9.056;2023-08-21T01:19:38;23.80;1.00
506;DHT22;551;48.524;9.056;2023-08-21T01:22:05;23.80;1.00
506;DHT22;551;48.524;9.056;2023-08-21T01:24:34;23.80;1.00
506;DHT22;551;48.524;9.056;2023-08-21T01:27:00;23.80;1.00
506;DHT22;551;48.524;9.056;2023-08-21T01:29:25;23.80;1.00
506;DHT22;551;48.524;9.056;2023-08-21T01:32:21;23.80;1.00
506;DHT22;551;48.524;9.056;2023-08-21T01:34:50;23.70;1.00
506;DHT22;551;48.524;9.056;2023-08-21T01:37:17;23.70;1.00
506;DHT22;551;48.524;9.056;2023-08-21T01:39:42;23.70;1.00
506;DHT22;551;48.524;9.056;2023-08-21T01:42:08;23.70;1.00
506;DHT22;551;48.524;9.056;2023-08-21T01:44:34;23.70;1.00
506;DHT22;551;48.524;9.056;2023-08-21T01:46:59;23.70;1.00
506;DHT22;551;48.524;9.056;2023-08-21T01:49:25;23.70;1.00
506;DHT22;551;48.524;9.056;2023-08-21T01:51:50;23.60;1.00
506;DHT22;551;48.524;9.056;2023-08-21T01:54:16;23.60;1.00
506;DHT22;551;48.524;9.056;2023-08-21T01:56:41;23.60;1.00
506;DHT22;551;48.524;9.056;2023-08-21T01:59:07;23.60;1.00
506;DHT22;551;48.524;9.056;2023-08-21T02:01:33;23.50;1.00
506;DHT22;551;48.524;9.056;2023-08-21T02:03:59;23.50;1.00
506;DHT22;551;48.524;9.056;2023-08-21T02:06:24;23.50;1.00
506;DHT22;551;48.524;9.056;2023-08-21T02:08:50;23.50;1.00
506;DHT22;551;48.524;9.056;2023-08-21T02:11:15;23.50;1.00
506;DHT22;551;48.524;9.056;2023-08-21T02:13:41;23.40;1.00
506;DHT22;551;48.524;9.056;2023-08-21T02:16:06;23.40;1.00
506;DHT22;551;48.524;9.056;2023-08-21T02:18:32;23.40;1.00
506;DHT22;551;48.524;9.056;2023-08-21T02:20:59;23.30;1.00
506;DHT22;551;48.524;9.056;2023-08-21T02:23:25;23.30;1.00
506;DHT22;551;48.524;9.056;2023-08-21T02:25:51;23.30;1.00
506;DHT22;551;48.524;9.056;2023-08-21T02:28:16;23.20;1.00
506;DHT22;551;48.524;9.056;2023-08-21T02:30:42;23.20;1.00
506;DHT22;551;48.524;9.056;2023-08-21T02:33:08;23.10;1.00
506;DHT22;551;48.524;9.056;2023-08-21T02:35:34;23.10;1.00
506;DHT22;551;48.524;9.056;2023-08-21T02:37:59;23.10;1.00
506;DHT22;551;48.524;9.056;2023-08-21T02:40:25;23.00;1.00
506;DHT22;551;48.524;9.056;2023-08-21T02:42:50;23.00;1.00
506;DHT22;551;48.524;9.056;2023-08-21T02:45:16;22.90;1.00
506;DHT22;551;48.524;9.056;2023-08-21T02:47:42;22.90;1.00
506;DHT22;551;48.524;9.056;2023-08-21T02:50:09;22.80;1.00
506;DHT22;551;48.524;9.056;2023-08-21T02:52:35;22.80;1.00
506;DHT22;551;48.524;9.056;2023-08-21T02:55:01;22.80;1.00
506;DHT22;551;48.524;9.056;2023-08-21T02:57:28;22.70;1.00
506;DHT22;551;48.524;9.056;2023-08-21T02:59:54;22.60;1.00
506;DHT22;551;48.524;9.056;2023-08-21T03:02:20;22.60;1.00
506;DHT22;551;48.524;9.056;2023-08-21T03:04:46;22.50;1.00
506;DHT22;551;48.524;9.056;2023-08-21T03:07:12;22.50;1.00
506;DHT22;551;48.524;9.056;2023-08-21T03:09:39;22.50;1.00
506;DHT22;551;48.524;9.056;2023-08-21T03:12:05;22.50;1.00
506;DHT22;551;48.524;9.056;2023-08-21T03:14:31;22.50;1.00
506;DHT22;551;48.524;9.056;2023-08-21T03:16:56;22.50;1.00
506;DHT22;551;48.524;9.056;2023-08-21T03:19:22;22.50;1.00
506;DHT22;551;48.524;9.056;2023-08-21T03:21:47;22.50;1.00
506;DHT22;551;48.524;9.056;2023-08-21T03:24:13;22.40;1.00
506;DHT22;551;48.524;9.056;2023-08-21T03:26:38;22.40;1.00
506;DHT22;551;48.524;9.056;2023-08-21T03:29:04;22.40;1.00
506;DHT22;551;48.524;9.056;2023-08-21T03:31:30;22.40;1.00
506;DHT22;551;48.524;9.056;2023-08-21T03:33:56;22.40;1.00
506;DHT22;551;48.524;9.056;2023-08-21T03:36:22;22.30;1.00
506;DHT22;551;48.524;9.056;2023-08-21T03:38:56;22.30;1.00
506;DHT22;551;48.524;9.056;2023-08-21T03:41:22;22.30;1.00
506;DHT22;551;48.524;9.056;2023-08-21T03:43:47;22.30;1.00
506;DHT22;551;48.524;9.056;2023-08-21T03:46:13;22.30;1.00
506;DHT22;551;48.524;9.056;2023-08-21T03:48:38;22.20;1.00
506;DHT22;551;48.524;9.056;2023-08-21T03:51:07;22.20;1.00
506;DHT22;551;48.524;9.056;2023-08-21T03:53:32;22.20;1.00
506;DHT22;551;48.524;9.056;2023-08-21T03:55:58;22.10;1.00
506;DHT22;551;48.524;9.056;2023-08-21T03:58:23;22.20;1.00
506;DHT22;551;48.524;9.056;2023-08-21T04:00:51;22.10;1.00
506;DHT22;551;48.524;9.056;2023-08-21T04:03:16;22.10;1.00
506;DHT22;551;48.524;9.056;2023-08-21T04:05:42;22.10;1.00
506;DHT22;551;48.524;9.056;2023-08-21T04:08:07;22.00;1.00
506;DHT22;551;48.524;9.056;2023-08-21T04:10:33;21.90;1.00
506;DHT22;551;48.524;9.056;2023-08-21T04:12:58;21.90;1.00
506;DHT22;551;48.524;9.056;2023-08-21T04:15:25;21.90;1.00
506;DHT22;551;48.524;9.056;2023-08-21T04:17:52;21.90;1.00
506;DHT22;551;48.524;9.056;2023-08-21T04:20:19;21.90;1.00
506;DHT22;551;48.524;9.056;2023-08-21T04:22:45;21.90;1.00
506;DHT22;551;48.524;9.056;2023-08-21T04:25:11;21.90;1.00
506;DHT22;551;48.524;9.056;2023-08-21T04:27:37;21.90;1.00
506;DHT22;551;48.524;9.056;2023-08-21T04:30:02;21.90;1.00
506;DHT22;551;48.524;9.056;2023-08-21T04:32:28;21.90;1.00
506;DHT22;551;48.524;9.056;2023-08-21T04:34:54;21.90;1.00
506;DHT22;551;48.524;9.056;2023-08-21T04:37:19;21.90;1.00
506;DHT22;551;48.524;9.056;2023-08-21T04:39:46;22.00;1.00
506;DHT22;551;48.524;9.056;2023-08-21T04:42:15;22.00;1.00
506;DHT22;551;48.524;9.056;2023-08-21T04:44:40;22.00;1.00
506;DHT22;551;48.524;9.056;2023-08-21T04:47:22;22.10;1.00
506;DHT22;551;48.524;9.056;2023-08-21T04:49:52;22.10;1.00
506;DHT22;551;48.524;9.056;2023-08-21T04:52:21;22.10;1.00
506;DHT22;551;48.524;9.056;2023-08-21T04:54:48;22.20;1.00
506;DHT22;551;48.524;9.056;2023-08-21T04:57:14;22.20;1.00
506;DHT22;551;48.524;9.056;2023-08-21T04:59:40;22.30;1.00
506;DHT22;551;48.524;9.056;2023-08-21T05:02:06;22.30;1.00
506;DHT22;551;48.524;9.056;2023-08-21T05:04:31;22.30;1.00
506;DHT22;551;48.524;9.056;2023-08-21T05:06:57;22.40;1.00
506;DHT22;551;48.524;9.056;2023-08-21T05:09:23;22.40;1.00
506;DHT22;551;48.524;9.056;2023-08-21T05:11:48;22.40;1.00
506;DHT22;551;48.524;9.056;2023-08-21T05:14:14;22.50;1.00
506;DHT22;551;48.524;9.056;2023-08-21T05:16:39;22.60;1.00
506;DHT22;551;48.524;9.056;2023-08-21T05:19:05;22.70;1.00
506;DHT22;551;48.524;9.056;2023-08-21T05:21:31;23.00;1.00
506;DHT22;551;48.524;9.056;2023-08-21T05:23:56;23.70;1.00
506;DHT22;551;48.524;9.056;2023-08-21T05:26:22;24.70;1.00
506;DHT22;551;48.524;9.056;2023-08-21T05:28:47;25.30;1.00
506;DHT22;551;48.524;9.056;2023-08-21T05:31:13;26.00;1.00
506;DHT22;551;48.524;9.056;2023-08-21T05:33:38;26.40;1.00
506;DHT22;551;48.524;9.056;2023-08-21T05:36:04;26.50;1.00
506;DHT22;551;48.524;9.056;2023-08-21T05:38:30;26.60;1.00
506;DHT22;551;48.524;9.056;2023-08-21T05:40:56;27.10;1.00
506;DHT22;551;48.524;9.056;2023-08-21T05:43:21;27.70;1.00
506;DHT22;551;48.524;9.056;2023-08-21T05:45:47;28.50;1.00
506;DHT22;551;48.524;9.056;2023-08-21T05:48:13;29.50;1.00
506;DHT22;551;48.524;9.056;2023-08-21T05:50:39;30.50;1.00
506;DHT22;551;48.524;9.056;2023-08-21T05:53:05;31.40;1.00
506;DHT22;551;48.524;9.056;2023-08-21T05:55:31;32.20;1.00
506;DHT22;551;48.524;9.056;2023-08-21T05:57:57;33.00;1.00
506;DHT22;551;48.524;9.056;2023-08-21T06:00:22;33.80;1.00
506;DHT22;551;48.524;9.056;2023-08-21T06:02:48;34.20;1.00
506;DHT22;551;48.524;9.056;2023-08-21T06:05:13;34.50;1.00
506;DHT22;551;48.524;9.056;2023-08-21T06:07:39;34.80;1.00
506;DHT22;551;48.524;9.056;2023-08-21T06:10:09;35.00;1.00
506;DHT22;551;48.524;9.056;2023-08-21T06:12:41;34.90;1.00
506;DHT22;551;48.524;9.056;2023-08-21T06:15:07;34.30;1.00
506;DHT22;551;48.524;9.056;2023-08-21T06:17:36;34.00;1.00
506;DHT22;551;48.524;9.056;2023-08-21T06:20:04;34.30;1.00
506;DHT22;551;48.524;9.056;2023-08-21T06:22:39;34.80;1.00
506;DHT22;551;48.524;9.056;2023-08-21T06:25:04;35.70;1.00
506;DHT22;551;48.524;9.056;2023-08-21T06:27:30;36.60;1.00
506;DHT22;551;48.524;9.056;2023-08-21T06:29:56;37.40;1.00
506;DHT22;551;48.524;9.056;2023-08-21T06:32:22;38.10;1.00
506;DHT22;551;48.524;9.056;2023-08-21T06:34:47;38.80;1.00
506;DHT22;551;48.524;9.056;2023-08-21T06:37:13;39.00;1.00
506;DHT22;551;48.524;9.056;2023-08-21T06:39:41;39.30;1.00
506;DHT22;551;48.524;9.056;2023-08-21T06:42:07;39.30;1.00
506;DHT22;551;48.524;9.056;2023-08-21T06:44:32;39.40;1.00
506;DHT22;551;48.524;9.056;2023-08-21T06:46:58;39.40;1.00
506;DHT22;551;48.524;9.056;2023-08-21T06:49:23;39.90;1.00
506;DHT22;551;48.524;9.056;2023-08-21T06:51:49;40.90;1.00
506;DHT22;551;48.524;9.056;2023-08-21T06:54:15;41.50;1.00
506;DHT22;551;48.524;9.056;2023-08-21T06:56:41;42.40;1.00
506;DHT22;551;48.524;9.056;2023-08-21T06:59:07;43.00;1.00
506;DHT22;551;48.524;9.056;2023-08-21T07:01:32;43.60;1.00
506;DHT22;551;48.524;9.056;2023-08-21T07:03:58;43.80;1.00
506;DHT22;551;48.524;9.056;2023-08-21T07:06:23;44.30;1.00
506;DHT22;551;48.524;9.056;2023-08-21T07:08:49;44.10;1.00
506;DHT22;551;48.524;9.056;2023-08-21T07:11:15;44.50;1.00
506;DHT22;551;48.524;9.056;2023-08-21T07:13:42;44.80;1.00
506;DHT22;551;48.524;9.056;2023-08-21T07:16:08;45.00;1.00
506;DHT22;551;48.524;9.056;2023-08-21T07:18:34;44.80;1.00
506;DHT22;551;48.524;9.056;2023-08-21T07:21:00;45.20;1.00
506;DHT22;551;48.524;9.056;2023-08-21T07:23:26;45.60;1.00
506;DHT22;551;48.524;9.056;2023-08-21T07:25:52;45.80;1.00
506;DHT22;551;48.524;9.056;2023-08-21T07:28:17;46.50;1.00
506;DHT22;551;48.524;9.056;2023-08-21T07:30:43;46.90;1.00
506;DHT22;551;48.524;9.056;2023-08-21T07:33:08;47.20;1.00
506;DHT22;551;48.524;9.056;2023-08-21T07:35:34;48.10;1.00
506;DHT22;551;48.524;9.056;2023-08-21T07:38:00;48.70;1.00
506;DHT22;551;48.524;9.056;2023-08-21T07:40:25;48.80;1.00
506;DHT22;551;48.524;9.056;2023-08-21T07:42:51;49.00;1.00
506;DHT22;551;48.524;9.056;2023-08-21T07:45:16;48.70;1.00
506;DHT22;551;48.524;9.056;2023-08-21T07:47:42;48.60;1.00
506;DHT22;551;48.524;9.056;2023-08-21T07:50:08;48.80;1.00
506;DHT22;551;48.524;9.056;2023-08-21T07:52:35;48.90;1.00
506;DHT22;551;48.524;9.056;2023-08-21T07:55:00;49.20;1.00
506;DHT22;551;48.524;9.056;2023-08-21T07:57:27;50.30;1.00
506;DHT22;551;48.524;9.056;2023-08-21T07:59:53;50.40;1.00
506;DHT22;551;48.524;9.056;2023-08-21T08:02:20;50.70;1.00
506;DHT22;551;48.524;9.056;2023-08-21T08:04:46;51.20;1.00
506;DHT22;551;48.524;9.056;2023-08-21T08:07:12;51.80;1.00
506;DHT22;551;48.524;9.056;2023-08-21T08:09:37;51.60;1.00
506;DHT22;551;48.524;9.056;2023-08-21T08:12:03;51.10;1.00
506;DHT22;551;48.524;9.056;2023-08-21T08:14:29;50.90;1.00
506;DHT22;551;48.524;9.056;2023-08-21T08:16:54;50.50;1.00
506;DHT22;551;48.524;9.056;2023-08-21T08:19:20;50.00;1.00
506;DHT22;551;48.524;9.056;2023-08-21T08:21:45;50.00;1.00
506;DHT22;551;48.524;9.056;2023-08-21T08:24:11;50.00;1.00
506;DHT22;551;48.524;9.056;2023-08-21T08:26:37;49.20;1.00
506;DHT22;551;48.524;9.056;2023-08-21T08:29:03;49.30;1.00
506;DHT22;551;48.524;9.056;2023-08-21T08:31:30;49.20;1.00
506;DHT22;551;48.524;9.056;2023-08-21T08:33:56;50.30;1.00
506;DHT22;551;48.524;9.056;2023-08-21T08:36:22;50.10;1.00
506;DHT22;551;48.524;9.056;2023-08-21T08:38:47;50.50;1.00
506;DHT22;551;48.524;9.056;2023-08-21T08:41:27;50.70;1.00
506;DHT22;551;48.524;9.056;2023-08-21T08:43:57;50.20;1.00
506;DHT22;551;48.524;9.056;2023-08-21T08:46:24;51.00;1.00
506;DHT22;551;48.524;9.056;2023-08-21T08:48:51;51.40;1.00
506;DHT22;551;48.524;9.056;2023-08-21T08:51:17;51.90;1.00
506;DHT22;551;48.524;9.056;2023-08-21T08:53:43;51.80;1.00
506;DHT22;551;48.524;9.056;2023-08-21T08:56:09;51.40;1.00
506;DHT22;551;48.524;9.056;2023-08-21T08:58:35;51.60;1.00
506;DHT22;551;48.524;9.056;2023-08-21T09:01:00;51.20;1.00
506;DHT22;551;48.524;9.056;2023-08-21T09:03:27;51.70;1.00
506;DHT22;551;48.524;9.056;2023-08-21T09:05:53;52.20;1.00
506;DHT22;551;48.524;9.056;2023-08-21T09:08:19;52.70;1.00
506;DHT22;551;48.524;9.056;2023-08-21T09:10:45;52.60;1.00
506;DHT22;551;48.524;9.056;2023-08-21T09:13:18;52.20;1.00
506;DHT22;551;48.524;9.056;2023-08-21T09:15:52;51.50;1.00
506;DHT22;551;48.524;9.056;2023-08-21T09:18:19;51.90;1.00
506;DHT22;551;48.524;9.056;2023-08-21T09:20:44;52.30;1.00
506;DHT22;551;48.524;9.056;2023-08-21T09:23:14;52.40;1.00
506;DHT22;551;48.524;9.056;2023-08-21T09:25:40;52.80;1.00
506;DHT22;551;48.524;9.056;2023-08-21T09:28:07;52.60;1.00
506;DHT22;551;48.524;9.056;2023-08-21T09:30:52;51.70;1.00
506;DHT22;551;48.524;9.056;2023-08-21T09:33:22;51.20;1.00
506;DHT22;551;48.524;9.056;2023-08-21T09:35:51;51.80;1.00
506;DHT22;551;48.524;9.056;2023-08-21T09:38:18;51.90;1.00
506;DHT22;551;48.524;9.056;2023-08-21T09:40:51;52.40;1.00
506;DHT22;551;48.524;9.056;2023-08-21T09:43:17;51.80;1.00
506;DHT22;551;48.524;9.056;2023-08-21T09:45:48;51.60;1.00
506;DHT22;551;48.524;9.056;2023-08-21T09:48:14;51.20;1.00
506;DHT22;551;48.524;9.056;2023-08-21T09:50:40;51.20;1.00
506;DHT22;551;48.524;9.056;2023-08-21T09:53:09;50.90;1.00
506;DHT22;551;48.524;9.056;2023-08-21T09:55:35;51.70;1.00
506;DHT22;551;48.524;9.056;2023-08-21T09:58:01;51.00;1.00
506;DHT22;551;48.524;9.056;2023-08-21T10:00:32;51.30;1.00
506;DHT22;551;48.524;9.056;2023-08-21T10:03:01;51.50;1.00
506;DHT22;551;48.524;9.056;2023-08-21T10:05:28;52.00;1.00
506;DHT22;551;48.524;9.056;2023-08-21T10:07:55;51.80;1.00
506;DHT22;551;48.524;9.056;2023-08-21T10:10:21;51.40;1.00
506;DHT22;551;48.524;9.056;2023-08-21T10:12:48;52.00;1.00
506;DHT22;551;48.524;9.056;2023-08-21T10:15:14;51.20;1.00
506;DHT22;551;48.524;9.056;2023-08-21T10:17:42;50.90;1.00
506;DHT22;551;48.524;9.056;2023-08-21T10:20:08;50.90;1.00
506;DHT22;551;48.524;9.056;2023-08-21T10:22:45;50.90;1.00
506;DHT22;551;48.524;9.056;2023-08-21T10:25:18;51.00;1.00
506;DHT22;551;48.524;9.056;2023-08-21T10:27:50;51.60;1.00
506;DHT22;551;48.524;9.056;2023-08-21T10:30:20;51.70;1.00
506;DHT22;551;48.524;9.056;2023-08-21T10:32:47;51.50;1.00
506;DHT22;551;48.524;9.056;2023-08-21T10:35:15;51.00;1.00
506;DHT22;551;48.524;9.056;2023-08-21T10:38:09;50.40;1.00
506;DHT22;551;48.524;9.056;2023-08-21T10:40:37;50.40;1.00
506;DHT22;551;48.524;9.056;2023-08-21T10:43:03;50.40;1.00
506;DHT22;551;48.524;9.056;2023-08-21T10:45:29;50.60;1.00
506;DHT22;551;48.524;9.056;2023-08-21T10:47:59;51.10;1.00
506;DHT22;551;48.524;9.056;2023-08-21T10:50:25;50.10;1.00
506;DHT22;551;48.524;9.056;2023-08-21T10:52:52;49.40;1.00
506;DHT22;551;48.524;9.056;2023-08-21T10:55:18;49.10;1.00
506;DHT22;551;48.524;9.056;2023-08-21T10:57:46;49.10;1.00
506;DHT22;551;48.524;9.056;2023-08-21T11:00:14;49.00;1.00
506;DHT22;551;48.524;9.056;2023-08-21T11:02:44;49.70;1.00
506;DHT22;551;48.524;9.056;2023-08-21T11:05:12;50.10;1.00
506;DHT22;551;48.524;9.056;2023-08-21T11:07:40;50.40;1.00
506;DHT22;551;48.524;9.056;2023-08-21T11:10:07;50.20;1.00
506;DHT22;551;48.524;9.056;2023-08-21T11:12:36;50.30;1.00
506;DHT22;551;48.524;9.056;2023-08-21T11:15:03;50.40;1.00
506;DHT22;551;48.524;9.056;2023-08-21T11:17:28;50.00;1.00
506;DHT22;551;48.524;9.056;2023-08-21T11:19:55;50.20;1.00
506;DHT22;551;48.524;9.056;2023-08-21T11:22:28;50.60;1.00
506;DHT22;551;48.524;9.056;2023-08-21T11:24:55;50.90;1.00
506;DHT22;551;48.524;9.056;2023-08-21T11:27:21;51.00;1.00
506;DHT22;551;48.524;9.056;2023-08-21T11:29:51;50.60;1.00
506;DHT22;551;48.524;9.056;2023-08-21T11:32:20;50.60;1.00
506;DHT22;551;48.524;9.056;2023-08-21T11:37:15;50.60;1.00
506;DHT22;551;48.524;9.056;2023-08-21T11:39:43;50.30;1.00
506;DHT22;551;48.524;9.056;2023-08-21T11:42:10;50.00;1.00
506;DHT22;551;48.524;9.056;2023-08-21T11:45:06;50.00;1.00
506;DHT22;551;48.524;9.056;2023-08-21T11:47:33;50.10;1.00
506;DHT22;551;48.524;9.056;2023-08-21T11:50:04;50.30;1.00
506;DHT22;551;48.524;9.056;2023-08-21T11:52:30;50.40;1.00
506;DHT22;551;48.524;9.056;2023-08-21T11:54:57;50.50;1.00
506;DHT22;551;48.524;9.056;2023-08-21T11:57:23;50.10;1.00
506;DHT22;551;48.524;9.056;2023-08-21T11:59:55;50.40;1.00
506;DHT22;551;48.524;9.056;2023-08-21T12:04:54;50.00;1.00
506;DHT22;551;48.524;9.056;2023-08-21T12:07:25;50.40;1.00
506;DHT22;551;48.524;9.056;2023-08-21T12:09:51;50.70;1.00
506;DHT22;551;48.524;9.056;2023-08-21T12:12:16;50.60;1.00
506;DHT22;551;48.524;9.056;2023-08-21T12:14:42;50.40;1.00
506;DHT22;551;48.524;9.056;2023-08-21T12:17:08;50.80;1.00
506;DHT22;551;48.524;9.056;2023-08-21T12:19:34;50.70;1.00
506;DHT22;551;48.524;9.056;2023-08-21T12:21:59;50.70;1.00
506;DHT22;551;48.524;9.056;2023-08-21T12:24:25;50.70;1.00
506;DHT22;551;48.524;9.056;2023-08-21T12:26:50;50.20;1.00
506;DHT22;551;48.524;9.056;2023-08-21T12:29:16;50.40;1.00
506;DHT22;551;48.524;9.056;2023-08-21T12:31:42;50.20;1.00
506;DHT22;551;48.524;9.056;2023-08-21T12:34:07;50.20;1.00
506;DHT22;551;48.524;9.056;2023-08-21T12:36:36;49.90;1.00
506;DHT22;551;48.524;9.056;2023-08-21T12:39:06;49.90;1.00
506;DHT22;551;48.524;9.056;2023-08-21T12:41:32;49.60;1.00
506;DHT22;551;48.524;9.056;2023-08-21T12:44:01;49.50;1.00
506;DHT22;551;48.524;9.056;2023-08-21T12:46:34;49.40;1.00
506;DHT22;551;48.524;9.056;2023-08-21T12:49:00;48.10;1.00
506;DHT22;551;48.524;9.056;2023-08-21T12:51:27;46.60;1.00
506;DHT22;551;48.524;9.056;2023-08-21T12:53:52;46.00;1.00
506;DHT22;551;48.524;9.056;2023-08-21T12:56:18;45.80;1.00
506;DHT22;551;48.524;9.056;2023-08-21T12:58:45;45.30;1.00
506;DHT22;551;48.524;9.056;2023-08-21T13:01:10;44.90;1.00
506;DHT22;551;48.524;9.056;2023-08-21T13:03:37;44.70;1.00
506;DHT22;551;48.524;9.056;2023-08-21T13:06:03;44.00;1.00
506;DHT22;551;48.524;9.056;2023-08-21T13:08:29;43.10;1.00
506;DHT22;551;48.524;9.056;2023-08-21T13:10:55;42.30;1.00
506;DHT22;551;48.524;9.056;2023-08-21T13:13:20;41.70;1.00
506;DHT22;551;48.524;9.056;2023-08-21T13:15:46;41.10;1.00
506;DHT22;551;48.524;9.056;2023-08-21T13:18:12;40.70;1.00
506;DHT22;551;48.524;9.056;2023-08-21T13:20:38;40.20;1.00
506;DHT22;551;48.524;9.056;2023-08-21T13:23:04;39.70;1.00
506;DHT22;551;48.524;9.056;2023-08-21T13:25:29;39.30;1.00
506;DHT22;551;48.524;9.056;2023-08-21T13:27:55;39.00;1.00
506;DHT22;551;48.524;9.056;2023-08-21T13:30:21;38.80;1.00
506;DHT22;551;48.524;9.056;2023-08-21T13:32:47;38.70;1.00
506;DHT22;551;48.524;9.056;2023-08-21T13:35:13;38.50;1.00
506;DHT22;551;48.524;9.056;2023-08-21T13:37:39;38.40;1.00
506;DHT22;551;48.524;9.056;2023-08-21T13:40:05;38.30;1.00
506;DHT22;551;48.524;9.056;2023-08-21T13:42:40;38.20;1.00
506;DHT22;551;48.524;9.056;2023-08-21T13:45:08;38.10;1.00
506;DHT22;551;48.524;9.056;2023-08-21T13:47:34;38.10;1.00
506;DHT22;551;48.524;9.056;2023-08-21T13:50:00;38.10;1.00
506;DHT22;551;48.524;9.056;2023-08-21T13:52:26;38.10;1.00
506;DHT22;551;48.524;9.056;2023-08-21T13:54:51;38.10;1.00
506;DHT22;551;48.524;9.056;2023-08-21T13:57:17;37.80;1.00
506;DHT22;551;48.524;9.056;2023-08-21T13:59:42;37.70;1.00
506;DHT22;551;48.524;9.056;2023-08-21T14:02:08;37.60;1.00
506;DHT22;551;48.524;9.056;2023-08-21T14:04:33;37.60;1.00
506;DHT22;551;48.524;9.056;2023-08-21T14:06:59;37.70;1.00
506;DHT22;551;48.524;9.056;2023-08-21T14:09:25;37.70;1.00
506;DHT22;551;48.524;9.056;2023-08-21T14:11:50;37.80;1.00
506;DHT22;551;48.524;9.056;2023-08-21T14:14:16;37.60;1.00
506;DHT22;551;48.524;9.056;2023-08-21T14:16:41;37.40;1.00
506;DHT22;551;48.524;9.056;2023-08-21T14:19:07;37.30;1.00
506;DHT22;551;48.524;9.056;2023-08-21T14:21:32;37.30;1.00
506;DHT22;551;48.524;9.056;2023-08-21T14:23:58;37.30;1.00
506;DHT22;551;48.524;9.056;2023-08-21T14:26:23;37.20;1.00
506;DHT22;551;48.524;9.056;2023-08-21T14:28:49;37.30;1.00
506;DHT22;551;48.524;9.056;2023-08-21T14:31:16;37.30;1.00
506;DHT22;551;48.524;9.056;2023-08-21T14:33:42;37.20;1.00
506;DHT22;551;48.524;9.056;2023-08-21T14:36:08;37.10;1.00
506;DHT22;551;48.524;9.056;2023-08-21T14:38:34;37.10;1.00
506;DHT22;551;48.524;9.056;2023-08-21T14:41:00;37.10;1.00
506;DHT22;551;48.524;9.056;2023-08-21T14:43:27;37.00;1.00
506;DHT22;551;48.524;9.056;2023-08-21T14:45:54;37.00;1.00
506;DHT22;551;48.524;9.056;2023-08-21T14:48:19;36.90;1.00
506;DHT22;551;48.524;9.056;2023-08-21T14:50:45;37.00;1.00
506;DHT22;551;48.524;9.056;2023-08-21T14:53:10;36.90;1.00
506;DHT22;551;48.524;9.056;2023-08-21T14:55:36;36.90;1.00
506;DHT22;551;48.524;9.056;2023-08-21T14:58:02;36.90;1.00
506;DHT22;551;48.524;9.056;2023-08-21T15:00:32;36.80;1.00
506;DHT22;551;48.524;9.056;2023-08-21T15:02:58;36.60;1.00
506;DHT22;551;48.524;9.056;2023-08-21T15:05:25;36.70;1.00
506;DHT22;551;48.524;9.056;2023-08-21T15:07:50;36.70;1.00
506;DHT22;551;48.524;9.056;2023-08-21T15:10:16;36.50;1.00
506;DHT22;551;48.524;9.056;2023-08-21T15:12:42;36.50;1.00
506;DHT22;551;48.524;9.056;2023-08-21T15:15:09;36.50;1.00
506;DHT22;551;48.524;9.056;2023-08-21T15:17:34;36.40;1.00
506;DHT22;551;48.524;9.056;2023-08-21T15:20:00;36.40;1.00
506;DHT22;551;48.524;9.056;2023-08-21T15:22:25;36.30;1.00
506;DHT22;551;48.524;9.056;2023-08-21T15:24:51;36.20;1.00
506;DHT22;551;48.524;9.056;2023-08-21T15:27:17;36.10;1.00
506;DHT22;551;48.524;9.056;2023-08-21T15:29:42;36.10;1.00
506;DHT22;551;48.524;9.056;2023-08-21T15:32:08;36.10;1.00
506;DHT22;551;48.524;9.056;2023-08-21T15:34:34;36.10;1.00
506;DHT22;551;48.524;9.056;2023-08-21T15:36:59;36.10;1.00
506;DHT22;551;48.524;9.056;2023-08-21T15:39:25;36.10;1.00
506;DHT22;551;48.524;9.056;2023-08-21T15:41:50;36.00;1.00
506;DHT22;551;48.524;9.056;2023-08-21T15:44:16;36.00;1.00
506;DHT22;551;48.524;9.056;2023-08-21T15:46:42;36.00;1.00
506;DHT22;551;48.524;9.056;2023-08-21T15:49:10;35.90;1.00
506;DHT22;551;48.524;9.056;2023-08-21T15:51:37;35.70;1.00
506;DHT22;551;48.524;9.056;2023-08-21T15:54:03;35.60;1.00
506;DHT22;551;48.524;9.056;2023-08-21T15:56:28;35.60;1.00
506;DHT22;551;48.524;9.056;2023-08-21T15:58:54;35.50;1.00
506;DHT22;551;48.524;9.056;2023-08-21T16:01:20;35.40;1.00
506;DHT22;551;48.524;9.056;2023-08-21T16:03:46;35.30;1.00
506;DHT22;551;48.524;9.056;2023-08-21T16:06:11;35.20;1.00
506;DHT22;551;48.524;9.056;2023-08-21T16:08:37;35.10;1.00
506;DHT22;551;48.524;9.056;2023-08-21T16:11:02;35.10;1.00
506;DHT22;551;48.524;9.056;2023-08-21T16:13:31;35.10;1.00
506;DHT22;551;48.524;9.056;2023-08-21T16:15:56;35.10;1.00
506;DHT22;551;48.524;9.056;2023-08-21T16:18:22;35.00;1.00
506;DHT22;551;48.524;9.056;2023-08-21T16:20:47;34.90;1.00
506;DHT22;551;48.524;9.056;2023-08-21T16:23:13;34.90;1.00
506;DHT22;551;48.524;9.056;2023-08-21T16:25:39;34.80;1.00
506;DHT22;551;48.524;9.056;2023-08-21T16:28:05;34.70;1.00
506;DHT22;551;48.524;9.056;2023-08-21T16:30:30;34.60;1.00
506;DHT22;551;48.524;9.056;2023-08-21T16:32:56;34.60;1.00
506;DHT22;551;48.524;9.056;2023-08-21T16:35:23;34.50;1.00
506;DHT22;551;48.524;9.056;2023-08-21T16:37:49;34.40;1.00
506;DHT22;551;48.524;9.056;2023-08-21T16:40:15;34.40;1.00
506;DHT22;551;48.524;9.056;2023-08-21T16:42:40;34.40;1.00
506;DHT22;551;48.524;9.056;2023-08-21T16:45:07;34.30;1.00
506;DHT22;551;48.524;9.056;2023-08-21T16:47:33;34.20;1.00
506;DHT22;551;48.524;9.056;2023-08-21T16:49:58;34.20;1.00
506;DHT22;551;48.524;9.056;2023-08-21T16:52:24;34.20;1.00